Time;durP1;ratioP1;P1;durP2;ratioP2;P2;SDS_P1;SDS_P2;PMS_P1;PMS_P2;Temp;Humidity;BMP_temperature;BMP_pressure;BME280_temperature;BME280_humidity;BME280_pressure;Samples;Min_cycle;Max_cycle;Signal;HPM_P1;HPM_P2
2022/01/11 00:01:43;;;;;;;45.88;28.33;;;;;;;2.97;67.14;103018.44;5246185;28;20437;-46
2022/01/11 00:04:17;;;;;;;55.38;34.22;;;;;;;2.98;67.20;103027.09;5245753;28;20409;-43
2022/01/11 00:06:51;;;;;;;71.22;37.55;;;;;;;2.98;67.15;103027.09;5246229;28;20509;-43
2022/01/11 00:09:32;;;;;;;69.93;38.53;;;;;;;2.94;67.11;103030.69;5244550;28;20472;-43
2022/01/11 00:12:08;;;;;;;72.63;38.97;;;;;;;2.92;67.13;103025.53;5250104;28;20429;-44
2022/01/11 00:14:40;;;;;;;74.85;37.22;;;;;;;2.94;67.01;103038.53;5241218;28;20423;-43
2022/01/11 00:17:12;;;;;;;86.60;41.92;;;;;;;2.93;67.09;103040.28;5248071;28;20406;-49
2022/01/11 00:19:47;;;;;;;88.70;42.27;;;;;;;2.95;67.23;103032.44;5249821;28;20406;-44
2022/01/11 00:22:27;;;;;;;80.90;40.50;;;;;;;2.98;67.08;103037.56;5246596;28;20414;-43
2022/01/11 00:24:58;;;;;;;83.03;37.97;;;;;;;3.00;67.12;103035.72;5246733;28;20518;-43
2022/01/11 00:27:30;;;;;;;69.72;37.50;;;;;;;3.00;66.94;103030.50;5250320;28;20491;-44
2022/01/11 00:30:07;;;;;;;80.75;41.45;;;;;;;3.01;67.06;103032.25;5244570;28;20418;-44
2022/01/11 00:32:45;;;;;;;82.97;39.03;;;;;;;3.03;67.09;103030.41;5250626;28;20450;-45
2022/01/11 00:35:22;;;;;;;79.00;40.72;;;;;;;3.03;67.26;103030.41;5242748;28;20416;-43
2022/01/11 00:37:56;;;;;;;74.75;40.05;;;;;;;3.04;67.25;103026.94;5248672;28;20429;-43
2022/01/11 00:40:29;;;;;;;67.40;36.55;;;;;;;3.04;67.28;103032.16;5251029;28;20417;-42
2022/01/11 00:43:01;;;;;;;95.75;39.35;;;;;;;3.02;67.02;103039.16;5248718;28;20422;-45
2022/01/11 00:45:33;;;;;;;89.13;41.25;;;;;;;3.02;67.01;103031.31;5249675;28;20398;-42
2022/01/11 00:48:06;;;;;;;87.50;45.10;;;;;;;3.05;67.12;103033.84;5247716;28;20891;-43
2022/01/11 00:50:39;;;;;;;93.95;46.15;;;;;;;3.08;66.97;103035.50;5248312;28;20390;-43
2022/01/11 00:53:13;;;;;;;96.87;45.67;;;;;;;3.11;66.89;103038.88;5245198;28;20414;-46
2022/01/11 00:55:47;;;;;;;94.80;46.83;;;;;;;3.12;67.21;103045.78;5243757;28;20390;-45
2022/01/11 00:58:20;;;;;;;101.85;50.70;;;;;;;3.11;67.24;103046.72;5248675;28;21083;-43
2022/01/11 01:00:53;;;;;;;98.13;46.30;;;;;;;3.10;67.15;103037.19;5246308;28;20424;-46
2022/01/11 01:03:26;;;;;;;103.03;48.25;;;;;;;3.08;67.20;103036.34;5244295;28;20421;-45
2022/01/11 01:05:59;;;;;;;82.18;42.00;;;;;;;3.07;67.16;103025.97;5248066;28;20903;-43
2022/01/11 01:08:32;;;;;;;81.85;40.58;;;;;;;3.02;67.01;103023.50;5238740;28;20766;-43
2022/01/11 01:11:05;;;;;;;87.80;42.33;;;;;;;3.02;67.24;103028.72;5250668;28;20473;-43
2022/01/11 01:13:37;;;;;;;81.18;39.10;;;;;;;3.03;67.37;103032.19;5247885;28;20417;-45
2022/01/11 01:16:09;;;;;;;69.82;37.88;;;;;;;2.96;67.04;103028.91;5249963;28;20736;-43
2022/01/11 01:18:42;;;;;;;72.32;36.78;;;;;;;2.99;66.90;103052.31;5249321;28;20406;-47
2022/01/11 01:21:14;;;;;;;72.43;40.75;;;;;;;3.02;67.11;103040.91;5244952;28;20393;-42
2022/01/11 01:23:48;;;;;;;78.60;38.55;;;;;;;3.02;67.10;103041.78;5245343;28;20425;-46
2022/01/11 01:26:20;;;;;;;76.72;39.10;;;;;;;2.90;67.12;103026.47;5249850;28;20402;-43
2022/01/11 01:28:53;;;;;;;77.70;40.10;;;;;;;3.05;67.00;103046.91;5246943;28;20502;-44
2022/01/11 01:31:25;;;;;;;70.20;37.85;;;;;;;2.78;67.11;102999.84;5250511;28;20410;-52
2022/01/11 01:33:58;;;;;;;74.68;38.72;;;;;;;3.07;67.01;103049.47;5247470;28;21022;-43
2022/01/11 01:36:31;;;;;;;71.30;37.97;;;;;;;3.06;67.12;103059.03;5242695;28;20454;-42
2022/01/11 01:39:05;;;;;;;72.35;39.00;;;;;;;3.02;66.94;103065.25;5246537;28;20469;-43
2022/01/11 01:41:42;;;;;;;74.60;38.95;;;;;;;3.05;67.20;103065.16;5242755;28;20827;-42
2022/01/11 01:44:15;;;;;;;73.65;39.35;;;;;;;3.01;67.06;103063.56;5248894;28;20998;-44
2022/01/11 01:46:47;;;;;;;85.07;38.70;;;;;;;2.97;67.13;103067.16;5248519;28;20532;-43
2022/01/11 01:49:22;;;;;;;79.43;40.78;;;;;;;2.97;67.41;103067.16;5245635;28;20438;-45
2022/01/11 01:51:55;;;;;;;76.75;41.72;;;;;;;2.94;67.37;103075.06;5243914;28;20727;-43
2022/01/11 01:54:28;;;;;;;63.63;34.78;;;;;;;2.92;66.99;103071.66;5244017;28;20493;-46
2022/01/11 01:57:01;;;;;;;70.35;38.65;;;;;;;2.91;67.39;103072.53;5251395;28;20406;-44
2022/01/11 01:59:33;;;;;;;75.90;39.90;;;;;;;2.91;67.39;103077.75;5247467;28;20422;-43
2022/01/11 02:02:08;;;;;;;80.13;42.40;;;;;;;2.86;67.23;103074.47;5243147;28;20982;-44
2022/01/11 02:04:41;;;;;;;74.97;37.85;;;;;;;2.82;67.46;103062.38;5241287;28;20443;-44
2022/01/11 02:07:13;;;;;;;76.05;38.40;;;;;;;2.79;67.53;103063.34;5245336;28;20406;-44
2022/01/11 02:09:47;;;;;;;69.20;35.40;;;;;;;2.75;67.38;103057.34;5246147;28;20428;-43
2022/01/11 02:12:19;;;;;;;82.88;43.53;;;;;;;2.72;67.78;103060.03;5244405;28;20414;-44
2022/01/11 02:14:51;;;;;;;76.75;39.13;;;;;;;2.75;67.53;103066.94;5245974;28;20429;-46
2022/01/11 02:17:28;;;;;;;74.53;39.67;;;;;;;2.66;67.27;103051.53;5247419;28;20406;-45
2022/01/11 02:20:00;;;;;;;74.13;38.42;;;;;;;2.69;67.35;103060.13;5248321;28;20821;-43
2022/01/11 02:22:34;;;;;;;77.38;38.70;;;;;;;2.78;67.55;103067.69;5248106;28;20416;-42
2022/01/11 02:25:08;;;;;;;85.78;42.65;;;;;;;2.70;67.57;103063.63;5245687;28;20416;-46
2022/01/11 02:27:40;;;;;;;85.22;42.42;;;;;;;2.77;67.36;103071.22;5244052;28;20747;-42
2022/01/11 02:30:13;;;;;;;75.45;37.38;;;;;;;2.77;67.58;103071.22;5242544;28;20386;-50
2022/01/11 02:32:50;;;;;;;84.88;43.28;;;;;;;2.78;67.38;103067.69;5249058;28;20408;-44
2022/01/11 02:35:23;;;;;;;94.35;44.28;;;;;;;2.80;67.45;103069.41;5247680;28;20891;-48
2022/01/11 02:37:57;;;;;;;90.90;43.20;;;;;;;2.81;67.45;103071.13;5248915;28;20457;-43
2022/01/11 02:40:29;;;;;;;88.28;45.53;;;;;;;2.84;67.60;103078.84;5248786;28;20755;-45
2022/01/11 02:43:02;;;;;;;93.10;47.58;;;;;;;2.85;67.48;103078.81;5244186;28;20414;-44
2022/01/11 02:45:34;;;;;;;86.73;45.27;;;;;;;2.87;67.53;103087.44;5242293;28;20556;-44
2022/01/11 02:48:07;;;;;;;82.93;43.88;;;;;;;2.87;67.22;103086.59;5245217;28;20420;-45
2022/01/11 02:50:39;;;;;;;88.22;43.90;;;;;;;2.87;67.34;103082.22;5241361;28;20411;-43
2022/01/11 02:53:14;;;;;;;78.20;41.55;;;;;;;2.85;67.46;103077.94;5236660;28;20408;-53
2022/01/11 02:55:47;;;;;;;83.53;41.53;;;;;;;2.81;67.55;103081.56;5242394;28;20401;-43
2022/01/11 02:58:19;;;;;;;87.85;44.75;;;;;;;2.78;67.61;103072.06;5248145;28;20828;-43
2022/01/11 03:00:52;;;;;;;88.47;44.47;;;;;;;2.80;67.49;103079.84;5238386;28;20898;-43
2022/01/11 03:03:25;;;;;;;86.65;42.55;;;;;;;2.82;67.37;103078.03;5238920;28;20772;-43
2022/01/11 03:06:00;;;;;;;95.32;45.63;;;;;;;2.84;67.61;103084.94;5239795;28;20419;-42
2022/01/11 03:08:38;;;;;;;88.93;45.08;;;;;;;2.85;67.61;103085.78;5242766;28;20448;-52
2022/01/11 03:11:12;;;;;;;86.03;43.85;;;;;;;2.87;67.63;103089.22;5251339;28;20402;-44
2022/01/11 03:13:44;;;;;;;89.22;47.38;;;;;;;2.81;67.58;103086.78;5239676;28;20888;-45
2022/01/11 03:16:17;;;;;;;87.83;43.20;;;;;;;2.84;67.64;103091.91;5248452;28;20445;-43
2022/01/11 03:18:50;;;;;;;81.47;42.08;;;;;;;2.81;67.53;103090.22;5245257;28;20952;-43
2022/01/11 03:21:22;;;;;;;84.82;42.80;;;;;;;2.83;67.54;103095.44;5245281;28;20426;-43
2022/01/11 03:23:57;;;;;;;85.45;43.30;;;;;;;2.83;67.49;103095.44;5241929;28;20425;-45
2022/01/11 03:26:29;;;;;;;83.75;41.55;;;;;;;2.82;67.42;103088.47;5249259;28;20532;-44
2022/01/11 03:29:01;;;;;;;82.72;43.97;;;;;;;2.80;67.66;103075.47;5249653;28;20410;-44
2022/01/11 03:31:35;;;;;;;83.60;43.67;;;;;;;2.78;67.64;103075.50;5248444;28;20514;-47
2022/01/11 03:34:07;;;;;;;81.35;45.63;;;;;;;2.81;67.58;103071.13;5249860;28;20736;-42
2022/01/11 03:36:40;;;;;;;84.18;44.03;;;;;;;2.83;67.59;103071.94;5242436;28;20430;-46
2022/01/11 03:39:14;;;;;;;85.65;43.85;;;;;;;2.81;67.60;103069.34;5249105;28;20402;-48
2022/01/11 03:41:46;;;;;;;89.93;46.53;;;;;;;2.81;67.64;103076.34;5245664;28;20479;-45
2022/01/11 03:44:19;;;;;;;97.93;48.20;;;;;;;2.83;67.83;103080.63;5253129;28;20405;-44
2022/01/11 03:46:51;;;;;;;97.55;49.00;;;;;;;2.87;67.80;103081.38;5246957;28;20895;-42
2022/01/11 03:49:23;;;;;;;96.13;48.75;;;;;;;2.91;67.62;103083.00;5250280;28;21060;-43
2022/01/11 03:51:56;;;;;;;88.80;44.65;;;;;;;2.94;67.53;103085.50;5241290;28;20433;-42
2022/01/11 03:54:43;;;;;;;97.65;44.47;;;;;;;2.94;68.01;103088.13;5247795;28;20402;-44
2022/01/11 03:57:15;;;;;;;99.87;48.60;;;;;;;2.94;67.84;103085.50;5244745;28;20784;-43
2022/01/11 03:59:47;;;;;;;106.80;51.40;;;;;;;2.98;67.52;103085.38;5243186;28;20418;-42
2022/01/11 04:02:20;;;;;;;101.05;51.05;;;;;;;2.97;67.70;103088.03;5242555;28;20425;-43
2022/01/11 04:04:53;;;;;;;108.80;53.03;;;;;;;2.97;67.80;103082.81;5252757;28;20467;-43
2022/01/11 04:07:29;;;;;;;102.13;50.83;;;;;;;2.98;67.60;103089.75;5251992;28;20876;-43
2022/01/11 04:10:03;;;;;;;105.53;51.97;;;;;;;3.00;67.80;103098.38;5252637;28;20492;-43
2022/01/11 04:12:35;;;;;;;92.68;46.58;;;;;;;2.99;67.75;103096.69;5250460;28;20512;-54
2022/01/11 04:15:08;;;;;;;108.75;52.05;;;;;;;2.97;67.59;103096.75;5250811;28;20412;-43
2022/01/11 04:17:40;;;;;;;107.07;53.20;;;;;;;2.95;67.83;103089.84;5247416;28;20917;-43
2022/01/11 04:20:14;;;;;;;93.45;45.03;;;;;;;2.97;67.95;103093.25;5248308;28;20467;-46
2022/01/11 04:22:47;;;;;;;112.95;54.05;;;;;;;2.98;67.84;103100.19;5250238;28;20493;-43
2022/01/11 04:25:21;;;;;;;120.63;56.45;;;;;;;2.96;67.45;103092.41;5250837;28;20425;-43
2022/01/11 04:27:53;;;;;;;104.55;50.45;;;;;;;2.97;67.94;103096.75;5251002;28;20405;-50
2022/01/11 04:30:26;;;;;;;121.93;55.03;;;;;;;2.94;67.62;103089.00;5250808;28;20399;-44
2022/01/11 04:32:58;;;;;;;119.20;58.03;;;;;;;2.99;67.87;103086.25;5245094;28;20752;-43
2022/01/11 04:35:31;;;;;;;110.15;49.65;;;;;;;3.02;67.72;103099.19;5250155;28;20859;-43
2022/01/11 04:38:03;;;;;;;119.97;56.30;;;;;;;3.00;67.65;103096.66;5248464;28;20758;-43
2022/01/11 04:40:37;;;;;;;115.43;56.85;;;;;;;3.03;67.99;103087.84;5243556;28;20412;-42
2022/01/11 04:43:09;;;;;;;126.95;58.25;;;;;;;3.02;68.00;103091.38;5247247;28;20412;-44
2022/01/11 04:45:42;;;;;;;104.55;47.38;;;;;;;3.02;68.06;103099.19;5248980;28;20406;-45
2022/01/11 04:48:15;;;;;;;117.35;56.75;;;;;;;3.01;67.76;103102.72;5248063;28;20438;-43
2022/01/11 04:50:47;;;;;;;106.80;53.07;;;;;;;3.00;67.82;103093.16;5249938;28;20775;-43
2022/01/11 04:53:20;;;;;;;126.45;59.67;;;;;;;3.04;68.04;103096.56;5250781;28;20871;-44
2022/01/11 04:55:54;;;;;;;122.82;61.85;;;;;;;3.07;67.88;103094.72;5250653;28;20414;-44
2022/01/11 04:58:26;;;;;;;122.35;56.70;;;;;;;3.08;67.91;103093.78;5240315;28;20414;-43
2022/01/11 05:00:59;;;;;;;128.90;58.40;;;;;;;3.11;67.67;103104.16;5247787;28;20775;-42
2022/01/11 05:03:31;;;;;;;127.38;59.20;;;;;;;3.14;67.74;103100.59;5245121;28;21831;-42
2022/01/11 05:06:05;;;;;;;121.35;54.22;;;;;;;3.14;67.68;103100.59;5249477;28;20394;-44
2022/01/11 05:08:37;;;;;;;120.10;58.50;;;;;;;3.14;67.78;103095.38;5248925;28;20528;-43
2022/01/11 05:11:11;;;;;;;118.63;56.10;;;;;;;3.11;67.90;103091.09;5239824;28;20402;-46
2022/01/11 05:13:43;;;;;;;115.25;56.42;;;;;;;3.12;67.95;103100.63;5245083;28;20395;-47
2022/01/11 05:16:16;;;;;;;113.82;54.90;;;;;;;3.12;67.80;103092.78;5245683;28;20442;-44
2022/01/11 05:19:25;;;;;;;111.40;56.45;;;;;;;3.10;67.89;103099.84;5245408;28;20394;-44
2022/01/11 05:21:57;;;;;;;108.45;56.10;;;;;;;3.10;68.04;103096.38;5248878;28;20530;-45
2022/01/11 05:24:29;;;;;;;107.63;52.07;;;;;;;2.80;67.93;103052.00;5251014;28;20422;-44
2022/01/11 05:27:03;;;;;;;103.28;50.33;;;;;;;3.09;67.96;103098.09;5250271;28;20493;-44
2022/01/11 05:29:36;;;;;;;103.07;52.25;;;;;;;3.04;67.85;103092.19;5251542;28;20405;-43
2022/01/11 05:32:09;;;;;;;102.55;53.05;;;;;;;3.13;67.75;103096.28;5244757;28;20810;-44
2022/01/11 05:34:42;;;;;;;102.63;52.40;;;;;;;3.16;67.78;103097.03;5235181;28;20410;-43
2022/01/11 05:37:14;;;;;;;101.15;50.65;;;;;;;3.15;67.77;103094.47;5233469;28;20404;-44
2022/01/11 05:39:46;;;;;;;102.88;52.10;;;;;;;3.15;67.82;103094.47;5251790;28;20420;-44
2022/01/11 05:42:20;;;;;;;96.78;50.42;;;;;;;3.18;67.61;103097.84;5247084;28;20436;-42
2022/01/11 05:44:53;;;;;;;103.43;50.40;;;;;;;3.16;67.70;103093.56;5252315;28;20444;-42
2022/01/11 05:47:26;;;;;;;100.78;52.63;;;;;;;3.19;67.96;103099.56;5251361;28;20442;-44
2022/01/11 05:50:00;;;;;;;105.68;52.45;;;;;;;3.21;67.93;103109.94;5249369;28;20782;-42
2022/01/11 05:52:33;;;;;;;107.97;53.10;;;;;;;3.23;67.71;103106.41;5249376;28;20416;-42
2022/01/11 05:55:08;;;;;;;107.22;54.05;;;;;;;3.24;67.84;103113.31;5252972;28;20410;-43
2022/01/11 05:57:42;;;;;;;110.70;55.58;;;;;;;3.22;67.95;103124.69;5249932;28;20422;-46
2022/01/11 06:00:18;;;;;;;118.53;57.97;;;;;;;3.20;68.18;103124.75;5243037;28;20402;-43
2022/01/11 06:02:54;;;;;;;106.15;55.42;;;;;;;3.21;67.95;103134.28;5251118;28;20416;-42
2022/01/11 06:05:26;;;;;;;112.03;57.27;;;;;;;3.24;68.02;103136.81;5252161;28;20409;-43
2022/01/11 06:07:59;;;;;;;117.57;58.53;;;;;;;3.25;67.90;103140.28;5244324;28;20964;-45
2022/01/11 06:10:31;;;;;;;103.10;50.53;;;;;;;3.23;67.88;103136.88;5231761;28;20424;-43
2022/01/11 06:13:05;;;;;;;106.25;55.50;;;;;;;3.19;67.91;103151.78;5231371;28;20487;-43
2022/01/11 06:15:37;;;;;;;118.38;58.47;;;;;;;3.16;68.45;103143.16;5238882;28;20406;-43
2022/01/11 06:18:10;;;;;;;113.22;55.47;;;;;;;3.17;68.02;103137.91;5252095;28;20766;-43
2022/01/11 06:20:42;;;;;;;108.50;57.65;;;;;;;3.17;68.01;103147.50;5241719;28;20407;-44
2022/01/11 06:23:14;;;;;;;97.72;47.90;;;;;;;3.17;68.15;103148.34;5243595;28;20404;-43
2022/01/11 06:25:47;;;;;;;106.03;55.67;;;;;;;3.14;68.17;103147.59;5246557;28;20549;-42
2022/01/11 06:28:20;;;;;;;105.45;52.53;;;;;;;3.12;68.03;103147.63;5249225;28;20734;-43
2022/01/11 06:30:53;;;;;;;106.95;53.30;;;;;;;3.07;68.19;103146.91;5248531;28;20409;-43
2022/01/11 06:33:25;;;;;;;103.20;55.75;;;;;;;3.00;68.03;103125.38;5248954;28;20424;-47
2022/01/11 06:35:58;;;;;;;97.93;51.65;;;;;;;3.11;67.97;103143.31;5248616;28;20737;-45
2022/01/11 06:38:30;;;;;;;104.88;55.35;;;;;;;3.12;68.11;103144.16;5246343;28;20400;-44
2022/01/11 06:41:02;;;;;;;100.38;49.28;;;;;;;3.13;68.02;103141.53;5248242;28;20410;-42
2022/01/11 06:43:36;;;;;;;99.03;52.88;;;;;;;3.11;68.07;103142.47;5252914;28;20877;-43
2022/01/11 06:46:08;;;;;;;95.88;51.75;;;;;;;3.03;68.08;103134.84;5250053;28;20412;-44
2022/01/11 06:48:41;;;;;;;100.18;52.25;;;;;;;3.13;67.96;103151.97;5246749;28;20402;-44
2022/01/11 06:51:13;;;;;;;98.28;53.17;;;;;;;3.13;68.06;103157.19;5251978;28;20410;-46
2022/01/11 06:53:46;;;;;;;92.65;51.75;;;;;;;3.16;67.85;103167.53;5253307;28;20414;-43
2022/01/11 06:56:20;;;;;;;95.60;54.95;;;;;;;3.15;67.99;103171.03;5248523;28;20502;-43
2022/01/11 06:58:53;;;;;;;99.18;53.03;;;;;;;3.16;67.88;103172.78;5246943;28;20417;-48
2022/01/11 07:01:26;;;;;;;89.90;51.08;;;;;;;3.11;68.12;103164.19;5248870;28;20415;-44
2022/01/11 07:03:58;;;;;;;96.00;51.33;;;;;;;3.11;68.09;103173.78;5250039;28;20776;-43
2022/01/11 07:06:30;;;;;;;82.50;48.03;;;;;;;3.08;68.16;103164.28;5244791;28;20408;-48
2022/01/11 07:09:03;;;;;;;86.73;50.67;;;;;;;3.08;68.04;103168.66;5243132;28;20405;-44
2022/01/11 07:11:35;;;;;;;85.22;48.60;;;;;;;3.10;68.15;103177.31;5252924;28;20406;-44
2022/01/11 07:14:09;;;;;;;86.97;48.45;;;;;;;3.12;68.06;103184.19;5233100;28;20425;-45
2022/01/11 07:16:43;;;;;;;82.03;45.85;;;;;;;3.11;68.08;103177.25;5235304;28;20898;-44
2022/01/11 07:19:16;;;;;;;87.10;48.95;;;;;;;3.10;68.07;103178.16;5231601;28;20483;-42
2022/01/11 07:21:49;;;;;;;76.03;45.70;;;;;;;3.11;68.11;103179.88;5234345;28;20412;-42
2022/01/11 07:24:21;;;;;;;78.25;43.78;;;;;;;3.06;68.28;103181.75;5243043;28;20404;-42
2022/01/11 07:26:54;;;;;;;77.63;44.58;;;;;;;3.03;68.15;103181.81;5255619;28;20432;-43
2022/01/11 07:29:28;;;;;;;81.93;46.45;;;;;;;3.00;68.29;103187.13;5237264;28;20934;-44
2022/01/11 07:32:00;;;;;;;78.78;45.05;;;;;;;3.02;68.18;103184.50;5234954;28;20869;-43
2022/01/11 07:34:32;;;;;;;78.13;46.38;;;;;;;3.02;68.01;103180.13;5234540;28;20960;-43
2022/01/11 07:37:05;;;;;;;72.60;40.35;;;;;;;3.02;68.13;103184.50;5235019;28;20410;-43
2022/01/11 07:39:37;;;;;;;84.73;45.53;;;;;;;2.99;68.12;103186.28;5251351;28;20744;-43
2022/01/11 07:42:09;;;;;;;72.90;42.55;;;;;;;2.99;68.15;103172.38;5255879;28;20412;-43
2022/01/11 07:44:45;;;;;;;71.07;41.25;;;;;;;2.96;68.04;103175.06;5255856;28;20406;-43
2022/01/11 07:47:17;;;;;;;64.68;40.75;;;;;;;3.00;68.12;103182.78;5251634;28;20414;-42
2022/01/11 07:49:49;;;;;;;72.68;41.08;;;;;;;2.88;68.06;103169.19;5253172;28;20429;-42
2022/01/11 07:52:22;;;;;;;62.92;39.28;;;;;;;2.97;68.22;103182.88;5255915;28;20484;-43
2022/01/11 07:54:54;;;;;;;68.68;40.85;;;;;;;2.84;68.08;103178.88;5235950;28;20769;-43
2022/01/11 07:57:27;;;;;;;64.65;39.33;;;;;;;2.93;68.10;103183.00;5234462;28;20874;-43
2022/01/11 08:00:00;;;;;;;64.63;37.65;;;;;;;2.93;68.19;103180.38;5237466;28;20410;-45
2022/01/11 08:02:33;;;;;;;60.30;32.90;;;;;;;2.93;68.22;103186.44;5235931;28;20514;-43
2022/01/11 08:05:06;;;;;;;66.80;35.55;;;;;;;2.92;68.16;103194.34;5240538;28;20679;-43
2022/01/11 08:07:39;;;;;;;60.00;32.78;;;;;;;2.93;68.22;103202.13;5255149;28;20417;-42
2022/01/11 08:10:16;;;;;;;60.10;33.33;;;;;;;2.93;68.22;103201.25;5252958;28;20507;-42
2022/01/11 08:12:49;;;;;;;60.55;32.28;;;;;;;2.94;68.18;103205.56;5251028;28;20489;-45
2022/01/11 08:15:23;;;;;;;53.65;32.60;;;;;;;2.96;68.20;103212.47;5250858;28;20424;-43
2022/01/11 08:17:55;;;;;;;54.78;34.25;;;;;;;2.94;68.07;103211.69;5251957;28;20960;-42
2022/01/11 08:20:27;;;;;;;58.42;37.08;;;;;;;2.94;68.12;103210.78;5248138;28;20444;-43
2022/01/11 08:23:00;;;;;;;58.42;34.33;;;;;;;2.93;68.17;103216.94;5251445;28;20958;-43
2022/01/11 08:25:32;;;;;;;56.22;35.10;;;;;;;2.95;68.18;103215.13;5253514;28;20413;-52
2022/01/11 08:28:05;;;;;;;55.88;34.03;;;;;;;2.92;68.10;103215.22;5247162;28;20414;-42
2022/01/11 08:30:39;;;;;;;59.05;33.72;;;;;;;2.93;67.97;103222.16;5250978;28;20412;-43
2022/01/11 08:33:12;;;;;;;55.17;34.22;;;;;;;2.94;67.86;103229.06;5246626;28;20422;-45
2022/01/11 08:35:45;;;;;;;55.80;30.13;;;;;;;2.91;67.93;103237.88;5247826;28;20743;-43
2022/01/11 08:38:17;;;;;;;59.75;31.98;;;;;;;2.91;68.12;103239.59;5249437;28;20427;-42
2022/01/11 08:40:49;;;;;;;51.47;30.55;;;;;;;2.92;68.17;103236.09;5249053;28;20493;-42
2022/01/11 08:43:22;;;;;;;59.85;32.75;;;;;;;2.90;67.87;103266.59;5249528;28;20830;-44
2022/01/11 08:45:56;;;;;;;51.23;31.23;;;;;;;2.94;68.07;103240.38;5245838;28;20394;-44
2022/01/11 08:48:28;;;;;;;55.72;32.67;;;;;;;2.95;68.10;103236.03;5251623;28;20410;-42
2022/01/11 08:51:00;;;;;;;52.80;31.57;;;;;;;2.96;67.88;103232.50;5251164;28;20430;-43
2022/01/11 08:53:33;;;;;;;57.08;32.28;;;;;;;2.95;68.04;103230.81;5242052;28;20442;-41
2022/01/11 08:56:06;;;;;;;51.10;30.45;;;;;;;3.00;68.15;103218.47;5243326;28;20413;-42
2022/01/11 08:58:38;;;;;;;59.72;32.00;;;;;;;3.03;67.78;103228.81;5244348;28;20409;-51
2022/01/11 09:01:12;;;;;;;51.15;32.08;;;;;;;3.02;67.77;103216.69;5250765;28;20556;-41
2022/01/11 09:03:45;;;;;;;57.15;34.80;;;;;;;3.01;67.99;103225.41;5244176;28;20418;-43
2022/01/11 09:06:17;;;;;;;56.60;34.03;;;;;;;3.00;67.94;103235.00;5248735;28;20497;-41
2022/01/11 09:08:49;;;;;;;55.35;33.60;;;;;;;3.05;68.09;103247.91;5248615;28;20442;-44
2022/01/11 09:11:22;;;;;;;56.17;33.63;;;;;;;3.10;67.97;103233.00;5249087;28;20418;-44
2022/01/11 09:13:54;;;;;;;65.45;40.88;;;;;;;3.13;67.66;103235.53;5240065;28;20414;-42
2022/01/11 09:16:28;;;;;;;62.10;36.58;;;;;;;3.12;67.74;103241.63;5248618;28;20477;-43
2022/01/11 09:19:00;;;;;;;60.00;35.58;;;;;;;3.12;67.86;103239.00;5250629;28;20424;-42
2022/01/11 09:21:33;;;;;;;56.15;32.42;;;;;;;3.10;67.31;103240.81;5248254;28;20487;-42
2022/01/11 09:24:06;;;;;;;55.03;32.45;;;;;;;3.10;67.92;103230.38;5247970;28;20421;-42
2022/01/11 09:26:39;;;;;;;58.58;35.38;;;;;;;3.10;68.08;103239.97;5249612;28;20941;-44
2022/01/11 09:29:11;;;;;;;57.90;35.90;;;;;;;3.13;67.82;103235.53;5249426;28;20501;-44
2022/01/11 09:31:45;;;;;;;52.72;34.22;;;;;;;3.16;67.76;103242.38;5250083;28;20417;-44
2022/01/11 09:34:17;;;;;;;54.45;33.90;;;;;;;3.18;67.77;103253.66;5247258;28;20445;-43
2022/01/11 09:36:50;;;;;;;50.55;31.80;;;;;;;3.21;67.84;103249.19;5245128;28;20451;-43
2022/01/11 09:39:23;;;;;;;53.25;33.33;;;;;;;3.30;67.78;103247.25;5245308;28;20423;-43
2022/01/11 09:41:58;;;;;;;49.53;32.30;;;;;;;3.37;67.92;103235.72;5249217;28;20536;-45
2022/01/11 09:44:32;;;;;;;49.95;31.85;;;;;;;3.48;67.82;103241.50;5247208;28;20501;-42
2022/01/11 09:47:07;;;;;;;50.10;32.05;;;;;;;3.56;67.93;103236.91;5245686;28;20811;-43
2022/01/11 09:49:40;;;;;;;51.47;31.17;;;;;;;3.63;67.77;103227.97;5247794;28;20841;-42
2022/01/11 09:52:14;;;;;;;44.42;28.80;;;;;;;3.72;67.63;103236.41;5247694;28;20410;-43
2022/01/11 09:54:49;;;;;;;48.30;30.40;;;;;;;3.79;67.71;103235.34;5248466;28;20425;-43
2022/01/11 09:57:22;;;;;;;42.10;27.77;;;;;;;3.87;67.49;103241.16;5244067;28;20416;-42
2022/01/11 09:59:54;;;;;;;49.97;32.00;;;;;;;3.97;67.58;103233.94;5245468;28;20409;-44
2022/01/11 10:02:28;;;;;;;44.85;29.45;;;;;;;4.03;67.68;103242.44;5248727;28;20825;-43
2022/01/11 10:05:05;;;;;;;41.78;26.27;;;;;;;4.09;67.50;103244.84;5248436;28;20936;-43
2022/01/11 10:07:41;;;;;;;46.13;28.67;;;;;;;4.07;67.49;103241.41;5246423;28;20912;-43
2022/01/11 10:10:17;;;;;;;42.60;27.95;;;;;;;4.20;67.51;103251.50;5248336;28;20459;-44
2022/01/11 10:12:52;;;;;;;43.88;27.35;;;;;;;4.22;67.42;103253.16;5237992;28;20413;-44
2022/01/11 10:15:29;;;;;;;40.65;26.40;;;;;;;4.32;67.44;103246.72;5242840;28;20428;-43
2022/01/11 10:18:03;;;;;;;33.30;23.35;;;;;;;4.36;67.32;103250.09;5248655;28;20413;-44
2022/01/11 10:20:37;;;;;;;37.05;25.23;;;;;;;4.36;67.64;103258.78;5245595;28;20406;-43
2022/01/11 10:23:13;;;;;;;39.80;26.98;;;;;;;4.38;67.51;103256.13;5249566;28;20420;-43
2022/01/11 10:25:47;;;;;;;37.13;25.90;;;;;;;4.45;67.40;103268.09;5247053;28;20437;-42
2022/01/11 10:28:35;;;;;;;39.72;26.58;;;;;;;4.51;67.38;103273.13;5244063;28;20512;-43
2022/01/11 10:31:07;;;;;;;40.83;26.52;;;;;;;4.52;67.42;103264.41;5247072;28;20405;-43
2022/01/11 10:34:02;;;;;;;44.63;28.70;;;;;;;4.60;67.34;103272.81;5243611;28;20405;-43
2022/01/11 10:36:47;;;;;;;37.13;24.13;;;;;;;4.66;67.29;103265.69;5248112;28;20414;-42
2022/01/11 10:39:28;;;;;;;39.03;25.73;;;;;;;4.65;67.34;103275.31;5242375;28;20779;-43
2022/01/11 10:42:02;;;;;;;37.53;25.40;;;;;;;4.67;67.20;103270.00;5248946;28;20410;-47
2022/01/11 10:44:52;;;;;;;32.50;22.50;;;;;;;4.75;67.34;103273.22;5242068;28;20867;-43
2022/01/11 10:47:29;;;;;;;33.40;22.35;;;;;;;4.79;67.17;103273.06;5242955;28;20485;-45
2022/01/11 10:50:08;;;;;;;31.60;21.85;;;;;;;4.88;66.99;103279.75;5250805;28;20440;-45
2022/01/11 10:52:42;;;;;;;34.03;22.88;;;;;;;4.96;66.91;103277.72;5251608;28;20416;-46
2022/01/11 10:55:17;;;;;;;32.67;21.88;;;;;;;5.05;66.95;103276.56;5241810;28;20402;-47
2022/01/11 10:57:53;;;;;;;32.47;22.35;;;;;;;5.15;66.91;103279.69;5250190;28;20492;-44
2022/01/11 11:00:29;;;;;;;37.28;24.17;;;;;;;5.27;66.85;103279.25;5253086;28;20432;-43
2022/01/11 11:03:07;;;;;;;40.75;24.13;;;;;;;5.41;66.46;103276.97;5250131;28;20416;-43
2022/01/11 11:05:46;;;;;;;27.37;20.40;;;;;;;5.53;66.46;103276.53;5249774;28;20768;-45
2022/01/11 11:08:21;;;;;;;31.75;19.38;;;;;;;5.57;66.51;103274.63;5249137;28;20398;-43
2022/01/11 11:11:00;;;;;;;29.60;20.48;;;;;;;5.63;66.35;103281.41;5251262;28;20414;-43
2022/01/11 11:13:35;;;;;;;28.55;20.48;;;;;;;5.61;66.39;103284.13;5250636;28;20455;-43
2022/01/11 11:16:13;;;;;;;27.50;20.20;;;;;;;5.58;66.23;103284.22;5251816;28;20489;-42
2022/01/11 11:18:48;;;;;;;29.90;20.40;;;;;;;5.63;66.27;103284.88;5249493;28;20414;-43
2022/01/11 11:21:26;;;;;;;27.20;19.98;;;;;;;5.66;66.11;103271.66;5251514;28;20418;-43
2022/01/11 11:24:01;;;;;;;27.73;19.25;;;;;;;5.76;66.09;103286.16;5250778;28;20748;-44
2022/01/11 11:26:37;;;;;;;28.73;19.08;;;;;;;5.80;65.91;103288.66;5254286;28;25691;-43
2022/01/11 11:29:11;;;;;;;32.70;21.60;;;;;;;5.84;65.69;103279.75;5254917;28;20493;-43
2022/01/11 11:31:44;;;;;;;30.52;20.67;;;;;;;5.95;65.57;103278.47;5253848;28;20420;-46
2022/01/11 11:34:17;;;;;;;27.60;18.98;;;;;;;6.07;65.67;103276.25;5254713;28;20406;-44
2022/01/11 11:36:51;;;;;;;28.90;18.45;;;;;;;6.14;65.42;103272.50;5253195;28;20406;-43
2022/01/11 11:39:25;;;;;;;32.45;19.65;;;;;;;6.17;65.31;103277.63;5250555;28;20779;-45
2022/01/11 11:41:59;;;;;;;28.63;18.25;;;;;;;6.26;65.18;103271.16;5252444;28;20422;-48
2022/01/11 11:44:38;;;;;;;29.77;18.88;;;;;;;6.40;65.00;103284.56;5254026;28;20505;-43